sensor_id;sensor_type;location;lat;lon;timestamp;pressure;altitude;pressure_sealevel;temperature;humidity
22651;BME280;11492;42.646;23.400;2023-01-28T00:00:48;94426.63;;;1.70;77.71
22651;BME280;11492;42.646;23.400;2023-01-28T00:03:14;94420.66;;;1.62;76.38
22651;BME280;11492;42.646;23.400;2023-01-28T00:05:40;94411.53;;;1.33;76.56
22651;BME280;11492;42.646;23.400;2023-01-28T00:08:05;94425.19;;;1.32;77.41
22651;BME280;11492;42.646;23.400;2023-01-28T00:10:31;94430.00;;;1.35;77.26
22651;BME280;11492;42.646;23.400;2023-01-28T00:12:56;94438.06;;;1.21;77.21
22651;BME280;11492;42.646;23.400;2023-01-28T00:15:21;94434.56;;;1.31;76.79
22651;BME280;11492;42.646;23.400;2023-01-28T00:17:47;94434.66;;;1.39;76.83
22651;BME280;11492;42.646;23.400;2023-01-28T00:20:12;94453.28;;;1.30;77.47
22651;BME280;11492;42.646;23.400;2023-01-28T00:22:39;94439.78;;;1.30;77.51
22651;BME280;11492;42.646;23.400;2023-01-28T00:25:04;94444.91;;;1.02;78.24
22651;BME280;11492;42.646;23.400;2023-01-28T00:27:30;94445.84;;;1.01;78.16
22651;BME280;11492;42.646;23.400;2023-01-28T00:29:55;94456.00;;;1.20;77.86
22651;BME280;11492;42.646;23.400;2023-01-28T00:32:20;94450.75;;;1.21;77.89
22651;BME280;11492;42.646;23.400;2023-01-28T00:34:46;94451.69;;;1.29;78.61
22651;BME280;11492;42.646;23.400;2023-01-28T00:37:11;94453.13;;;1.41;78.32
22651;BME280;11492;42.646;23.400;2023-01-28T00:39:37;94451.78;;;1.37;77.39
22651;BME280;11492;42.646;23.400;2023-01-28T00:42:02;94458.75;;;1.35;76.63
22651;BME280;11492;42.646;23.400;2023-01-28T00:44:27;94466.81;;;1.22;76.57
22651;BME280;11492;42.646;23.400;2023-01-28T00:46:53;94455.06;;;1.11;77.24
22651;BME280;11492;42.646;23.400;2023-01-28T00:49:18;94462.94;;;1.08;77.22
22651;BME280;11492;42.646;23.400;2023-01-28T00:51:44;94462.13;;;1.17;77.34
22651;BME280;11492;42.646;23.400;2023-01-28T00:54:11;94463.88;;;1.26;77.84
22651;BME280;11492;42.646;23.400;2023-01-28T00:56:37;94459.25;;;1.39;77.08
22651;BME280;11492;42.646;23.400;2023-01-28T00:59:03;94466.50;;;1.34;77.98
22651;BME280;11492;42.646;23.400;2023-01-28T01:01:28;94461.16;;;1.37;77.63
22651;BME280;11492;42.646;23.400;2023-01-28T01:03:54;94460.97;;;1.48;77.37
22651;BME280;11492;42.646;23.400;2023-01-28T01:06:28;94458.66;;;1.18;76.12
22651;BME280;11492;42.646;23.400;2023-01-28T01:08:53;94463.47;;;1.21;76.85
22651;BME280;11492;42.646;23.400;2023-01-28T01:11:19;94464.81;;;1.25;77.29
22651;BME280;11492;42.646;23.400;2023-01-28T01:13:52;94466.81;;;1.22;76.36
22651;BME280;11492;42.646;23.400;2023-01-28T01:16:20;94462.38;;;1.23;77.25
22651;BME280;11492;42.646;23.400;2023-01-28T01:18:45;94465.63;;;1.16;76.11
22651;BME280;11492;42.646;23.400;2023-01-28T01:21:16;94472.72;;;1.13;76.30
22651;BME280;11492;42.646;23.400;2023-01-28T01:23:42;94467.50;;;1.14;77.02
22651;BME280;11492;42.646;23.400;2023-01-28T01:26:08;94465.47;;;1.27;77.57
22651;BME280;11492;42.646;23.400;2023-01-28T01:28:33;94463.31;;;1.32;77.06
22651;BME280;11492;42.646;23.400;2023-01-28T01:31:04;94464.00;;;1.24;76.96
22651;BME280;11492;42.646;23.400;2023-01-28T01:33:30;94476.78;;;1.42;76.26
22651;BME280;11492;42.646;23.400;2023-01-28T01:35:56;94464.81;;;1.25;76.81
22651;BME280;11492;42.646;23.400;2023-01-28T01:38:22;94472.66;;;1.41;76.51
22651;BME280;11492;42.646;23.400;2023-01-28T01:40:47;94468.50;;;1.40;76.44
22651;BME280;11492;42.646;23.400;2023-01-28T01:43:18;94474.34;;;1.49;75.68
22651;BME280;11492;42.646;23.400;2023-01-28T01:45:46;94469.66;;;1.54;76.01
22651;BME280;11492;42.646;23.400;2023-01-28T01:48:20;94470.56;;;1.63;76.60
22651;BME280;11492;42.646;23.400;2023-01-28T01:50:56;94473.66;;;1.66;76.66
22651;BME280;11492;42.646;23.400;2023-01-28T01:53:24;94469.25;;;1.59;76.22
22651;BME280;11492;42.646;23.400;2023-01-28T01:55:52;94471.41;;;1.45;76.50
22651;BME280;11492;42.646;23.400;2023-01-28T01:58:23;94472.19;;;1.54;76.33
22651;BME280;11492;42.646;23.400;2023-01-28T02:00:50;94473.75;;;1.65;77.01
22651;BME280;11492;42.646;23.400;2023-01-28T02:03:18;94469.78;;;1.62;76.60
22651;BME280;11492;42.646;23.400;2023-01-28T02:05:48;94478.28;;;1.71;75.76
22651;BME280;11492;42.646;23.400;2023-01-28T02:08:14;94481.81;;;1.60;75.72
22651;BME280;11492;42.646;23.400;2023-01-28T02:11:00;94486.78;;;1.62;75.74
22651;BME280;11492;42.646;23.400;2023-01-28T02:13:29;94492.09;;;1.68;76.06
22651;BME280;11492;42.646;23.400;2023-01-28T02:15:57;94490.09;;;1.72;75.12
22651;BME280;11492;42.646;23.400;2023-01-28T02:18:24;94485.03;;;1.62;76.53
22651;BME280;11492;42.646;23.400;2023-01-28T02:33:03;94492.59;;;1.45;75.15
22651;BME280;11492;42.646;23.400;2023-01-28T02:38:03;94495.50;;;1.50;76.09
22651;BME280;11492;42.646;23.400;2023-01-28T02:40:34;94496.44;;;1.40;76.00
22651;BME280;11492;42.646;23.400;2023-01-28T02:43:49;94494.19;;;1.37;76.38
22651;BME280;11492;42.646;23.400;2023-01-28T02:49:16;94503.59;;;1.27;76.96
22651;BME280;11492;42.646;23.400;2023-01-28T02:54:21;94490.06;;;1.36;76.50
22651;BME280;11492;42.646;23.400;2023-01-28T02:57:11;94488.31;;;1.46;77.31
22651;BME280;11492;42.646;23.400;2023-01-28T03:00:02;94498.94;;;1.58;75.94
22651;BME280;11492;42.646;23.400;2023-01-28T03:05:16;94502.28;;;1.68;75.63
22651;BME280;11492;42.646;23.400;2023-01-28T03:07:47;94506.19;;;1.53;75.57
22651;BME280;11492;42.646;23.400;2023-01-28T03:10:16;94504.34;;;1.55;75.78
22651;BME280;11492;42.646;23.400;2023-01-28T03:12:46;94496.03;;;1.44;75.93
22651;BME280;11492;42.646;23.400;2023-01-28T03:15:44;94507.69;;;1.56;75.36
22651;BME280;11492;42.646;23.400;2023-01-28T03:18:37;94501.94;;;1.45;75.74
22651;BME280;11492;42.646;23.400;2023-01-28T03:21:42;94503.13;;;1.50;74.65
22651;BME280;11492;42.646;23.400;2023-01-28T03:30:28;94508.91;;;1.43;76.25
22651;BME280;11492;42.646;23.400;2023-01-28T03:33:14;94507.97;;;1.34;75.93
22651;BME280;11492;42.646;23.400;2023-01-28T03:35:59;94508.91;;;1.43;75.33
22651;BME280;11492;42.646;23.400;2023-01-28T03:38:44;94521.06;;;1.48;75.96
22651;BME280;11492;42.646;23.400;2023-01-28T03:41:21;94515.72;;;1.51;76.20
22651;BME280;11492;42.646;23.400;2023-01-28T03:43:48;94509.06;;;1.32;75.34
22651;BME280;11492;42.646;23.400;2023-01-28T03:46:14;94510.94;;;1.30;75.74
22651;BME280;11492;42.646;23.400;2023-01-28T03:48:39;94510.09;;;1.39;76.32
22651;BME280;11492;42.646;23.400;2023-01-28T03:51:05;94505.97;;;1.38;76.24
22651;BME280;11492;42.646;23.400;2023-01-28T03:53:30;94510.25;;;1.37;75.85
22651;BME280;11492;42.646;23.400;2023-01-28T03:55:55;94499.00;;;1.40;75.79
22651;BME280;11492;42.646;23.400;2023-01-28T03:58:22;94517.06;;;1.46;75.07
22651;BME280;11492;42.646;23.400;2023-01-28T04:00:52;94505.97;;;1.38;75.79
22651;BME280;11492;42.646;23.400;2023-01-28T04:03:18;94529.78;;;1.37;75.30
22651;BME280;11492;42.646;23.400;2023-01-28T04:05:55;94526.06;;;1.31;75.54
22651;BME280;11492;42.646;23.400;2023-01-28T04:08:21;94526.84;;;1.23;75.87
22651;BME280;11492;42.646;23.400;2023-01-28T04:10:46;94515.25;;;1.20;75.24
22651;BME280;11492;42.646;23.400;2023-01-28T04:13:12;94535.69;;;1.28;76.03
22651;BME280;11492;42.646;23.400;2023-01-28T04:15:37;94529.66;;;1.29;75.71
22651;BME280;11492;42.646;23.400;2023-01-28T04:18:03;94530.59;;;1.28;76.20
22651;BME280;11492;42.646;23.400;2023-01-28T04:20:28;94538.88;;;1.39;76.38
22651;BME280;11492;42.646;23.400;2023-01-28T04:22:54;94539.94;;;1.46;76.51
22651;BME280;11492;42.646;23.400;2023-01-28T04:25:19;94533.13;;;1.37;75.62
22651;BME280;11492;42.646;23.400;2023-01-28T04:27:45;94535.81;;;1.36;75.28
22651;BME280;11492;42.646;23.400;2023-01-28T04:30:10;94544.63;;;1.41;75.47
22651;BME280;11492;42.646;23.400;2023-01-28T04:32:36;94541.28;;;1.41;75.21
22651;BME280;11492;42.646;23.400;2023-01-28T04:35:02;94535.69;;;1.28;75.42
22651;BME280;11492;42.646;23.400;2023-01-28T04:37:27;94545.44;;;1.42;75.06
22651;BME280;11492;42.646;23.400;2023-01-28T04:39:53;94550.22;;;1.45;75.39
22651;BME280;11492;42.646;23.400;2023-01-28T04:42:18;94549.84;;;1.40;75.50
22651;BME280;11492;42.646;23.400;2023-01-28T04:44:43;94556.56;;;1.03;76.00
22651;BME280;11492;42.646;23.400;2023-01-28T04:47:09;94562.31;;;1.15;76.31
22651;BME280;11492;42.646;23.400;2023-01-28T04:49:34;94569.41;;;1.30;76.52
22651;BME280;11492;42.646;23.400;2023-01-28T04:52:00;94571.25;;;1.19;76.47
22651;BME280;11492;42.646;23.400;2023-01-28T04:54:25;94567.66;;;1.21;76.54
22651;BME280;11492;42.646;23.400;2023-01-28T04:56:50;94571.66;;;1.23;76.45
22651;BME280;11492;42.646;23.400;2023-01-28T04:59:16;94576.88;;;1.31;76.05
22651;BME280;11492;42.646;23.400;2023-01-28T05:01:42;94567.66;;;1.21;76.14
22651;BME280;11492;42.646;23.400;2023-01-28T05:04:07;94574.09;;;1.25;76.40
22651;BME280;11492;42.646;23.400;2023-01-28T05:06:33;94577.13;;;1.38;75.86
22651;BME280;11492;42.646;23.400;2023-01-28T05:08:59;94574.50;;;1.30;75.85
22651;BME280;11492;42.646;23.400;2023-01-28T05:11:25;94589.44;;;1.42;76.05
22651;BME280;11492;42.646;23.400;2023-01-28T05:13:51;94590.94;;;1.26;76.26
22651;BME280;11492;42.646;23.400;2023-01-28T05:16:18;94587.06;;;1.31;75.93
22651;BME280;11492;42.646;23.400;2023-01-28T05:18:43;94577.69;;;1.23;76.57
22651;BME280;11492;42.646;23.400;2023-01-28T05:21:12;94594.28;;;1.08;77.01
22651;BME280;11492;42.646;23.400;2023-01-28T05:23:38;94590.13;;;1.07;77.35
22651;BME280;11492;42.646;23.400;2023-01-28T05:26:03;94593.88;;;1.22;76.98
22651;BME280;11492;42.646;23.400;2023-01-28T05:28:29;94598.97;;;1.22;76.17
22651;BME280;11492;42.646;23.400;2023-01-28T05:30:54;94594.53;;;1.33;76.36
22651;BME280;11492;42.646;23.400;2023-01-28T05:33:20;94596.69;;;1.37;76.53
22651;BME280;11492;42.646;23.400;2023-01-28T05:35:45;94593.75;;;1.23;76.60
22651;BME280;11492;42.646;23.400;2023-01-28T05:38:10;94600.28;;;1.07;75.49
22651;BME280;11492;42.646;23.400;2023-01-28T05:40:36;94587.47;;;0.99;75.71
22651;BME280;11492;42.646;23.400;2023-01-28T05:43:01;94603.50;;;1.18;77.88
22651;BME280;11492;42.646;23.400;2023-01-28T05:45:26;94607.53;;;1.11;76.48
22651;BME280;11492;42.646;23.400;2023-01-28T05:47:52;94604.03;;;1.12;75.98
22651;BME280;11492;42.646;23.400;2023-01-28T05:50:17;94606.19;;;0.89;75.36
22651;BME280;11492;42.646;23.400;2023-01-28T05:52:43;94610.16;;;0.82;77.00
22651;BME280;11492;42.646;23.400;2023-01-28T05:55:09;94608.94;;;0.76;76.98
22651;BME280;11492;42.646;23.400;2023-01-28T05:57:35;94621.28;;;0.90;76.21
22651;BME280;11492;42.646;23.400;2023-01-28T06:00:00;94621.00;;;1.02;76.92
22651;BME280;11492;42.646;23.400;2023-01-28T06:02:26;94625.19;;;1.31;77.11
22651;BME280;11492;42.646;23.400;2023-01-28T06:04:51;94624.66;;;1.47;76.93
22651;BME280;11492;42.646;23.400;2023-01-28T06:07:17;94629.19;;;1.52;74.87
22651;BME280;11492;42.646;23.400;2023-01-28T06:09:45;94633.88;;;1.48;75.05
22651;BME280;11492;42.646;23.400;2023-01-28T06:12:11;94631.59;;;1.45;73.92
22651;BME280;11492;42.646;23.400;2023-01-28T06:14:37;94634.66;;;1.39;74.16
22651;BME280;11492;42.646;23.400;2023-01-28T06:17:02;94644.19;;;1.37;74.03
22651;BME280;11492;42.646;23.400;2023-01-28T06:19:27;94650.31;;;1.44;74.26
22651;BME280;11492;42.646;23.400;2023-01-28T06:21:53;94658.88;;;1.33;73.89
22651;BME280;11492;42.646;23.400;2023-01-28T06:24:18;94666.78;;;1.21;74.27
22651;BME280;11492;42.646;23.400;2023-01-28T06:26:44;94663.56;;;1.38;76.80
22651;BME280;11492;42.646;23.400;2023-01-28T06:29:09;94662.91;;;1.36;75.93
22651;BME280;11492;42.646;23.400;2023-01-28T06:31:34;94663.03;;;1.25;75.00
22651;BME280;11492;42.646;23.400;2023-01-28T06:34:00;94663.56;;;1.38;75.03
22651;BME280;11492;42.646;23.400;2023-01-28T06:36:25;94666.91;;;1.29;75.21
22651;BME280;11492;42.646;23.400;2023-01-28T06:38:51;94669.72;;;1.26;75.18
22651;BME280;11492;42.646;23.400;2023-01-28T06:41:17;94666.09;;;1.28;74.52
22651;BME280;11492;42.646;23.400;2023-01-28T06:43:42;94671.47;;;1.44;75.01
22651;BME280;11492;42.646;23.400;2023-01-28T06:46:08;94686.06;;;1.42;74.63
22651;BME280;11492;42.646;23.400;2023-01-28T06:48:33;94682.72;;;1.51;74.99
22651;BME280;11492;42.646;23.400;2023-01-28T06:50:58;94688.34;;;1.45;74.25
22651;BME280;11492;42.646;23.400;2023-01-28T06:53:24;94694.06;;;1.19;74.44
22651;BME280;11492;42.646;23.400;2023-01-28T06:55:49;94686.31;;;1.30;74.17
22651;BME280;11492;42.646;23.400;2023-01-28T06:58:15;94696.38;;;1.41;74.85
22651;BME280;11492;42.646;23.400;2023-01-28T07:00:40;94689.66;;;1.40;74.91
22651;BME280;11492;42.646;23.400;2023-01-28T07:03:06;94700.50;;;1.42;73.87
22651;BME280;11492;42.646;23.400;2023-01-28T07:05:31;94703.03;;;1.32;75.61
22651;BME280;11492;42.646;23.400;2023-01-28T07:07:56;94698.38;;;1.56;74.57
22651;BME280;11492;42.646;23.400;2023-01-28T07:10:22;94703.88;;;1.61;73.96
22651;BME280;11492;42.646;23.400;2023-01-28T07:12:47;94708.53;;;1.47;73.70
22651;BME280;11492;42.646;23.400;2023-01-28T07:15:13;94713.63;;;1.37;74.18
22651;BME280;11492;42.646;23.400;2023-01-28T07:17:43;94721.13;;;1.57;74.00
22651;BME280;11492;42.646;23.400;2023-01-28T07:20:10;94725.00;;;1.52;73.55
22651;BME280;11492;42.646;23.400;2023-01-28T07:22:39;94726.22;;;1.67;73.97
22651;BME280;11492;42.646;23.400;2023-01-28T07:25:06;94731.16;;;1.59;73.64
22651;BME280;11492;42.646;23.400;2023-01-28T07:27:31;94737.19;;;1.58;73.01
22651;BME280;11492;42.646;23.400;2023-01-28T07:29:57;94735.72;;;1.65;73.55
22651;BME280;11492;42.646;23.400;2023-01-28T07:32:22;94738.81;;;1.68;73.71
22651;BME280;11492;42.646;23.400;2023-01-28T07:34:47;94749.63;;;1.70;74.08
22651;BME280;11492;42.646;23.400;2023-01-28T07:37:13;94746.03;;;1.63;73.64
22651;BME280;11492;42.646;23.400;2023-01-28T07:39:39;94746.94;;;1.44;72.96
22651;BME280;11492;42.646;23.400;2023-01-28T07:42:04;94740.09;;;1.44;73.69
22651;BME280;11492;42.646;23.400;2023-01-28T07:44:31;94745.06;;;1.46;73.18
22651;BME280;11492;42.646;23.400;2023-01-28T07:46:56;94743.31;;;1.37;73.61
22651;BME280;11492;42.646;23.400;2023-01-28T07:49:22;94748.94;;;1.49;73.80
22651;BME280;11492;42.646;23.400;2023-01-28T07:51:47;94753.13;;;1.50;73.59
22651;BME280;11492;42.646;23.400;2023-01-28T07:54:14;94748.94;;;1.49;73.27
22651;BME280;11492;42.646;23.400;2023-01-28T07:56:40;94755.13;;;1.56;72.87
22651;BME280;11492;42.646;23.400;2023-01-28T07:59:05;94755.66;;;1.69;73.39
22651;BME280;11492;42.646;23.400;2023-01-28T08:01:30;94761.16;;;1.83;73.12
22651;BME280;11492;42.646;23.400;2023-01-28T08:03:56;94751.66;;;1.85;72.89
22651;BME280;11492;42.646;23.400;2023-01-28T08:06:21;94769.34;;;1.77;72.84
22651;BME280;11492;42.646;23.400;2023-01-28T08:08:47;94765.59;;;1.81;72.35
22651;BME280;11492;42.646;23.400;2023-01-28T08:11:12;94765.84;;;1.69;73.05
22651;BME280;11492;42.646;23.400;2023-01-28T08:13:38;94762.91;;;1.83;72.86
22651;BME280;11492;42.646;23.400;2023-01-28T08:16:04;94775.22;;;1.78;72.44
22651;BME280;11492;42.646;23.400;2023-01-28T08:18:29;94778.44;;;1.80;71.88
22651;BME280;11492;42.646;23.400;2023-01-28T08:20:56;94775.09;;;1.79;71.91
22651;BME280;11492;42.646;23.400;2023-01-28T08:23:22;94775.75;;;1.91;72.74
22651;BME280;11492;42.646;23.400;2023-01-28T08:25:47;94776.56;;;2.00;72.12
22651;BME280;11492;42.646;23.400;2023-01-28T08:28:14;94769.59;;;1.84;71.64
22651;BME280;11492;42.646;23.400;2023-01-28T08:30:40;94782.19;;;1.95;72.09
22651;BME280;11492;42.646;23.400;2023-01-28T08:33:08;94780.16;;;1.79;72.39
22651;BME280;11492;42.646;23.400;2023-01-28T08:35:34;94778.19;;;1.83;72.94
22651;BME280;11492;42.646;23.400;2023-01-28T08:38:01;94783.00;;;1.76;72.69
22651;BME280;11492;42.646;23.400;2023-01-28T08:40:27;94776.16;;;1.96;73.21
22651;BME280;11492;42.646;23.400;2023-01-28T08:42:53;94768.78;;;2.11;71.76
22651;BME280;11492;42.646;23.400;2023-01-28T08:45:20;94783.66;;;2.06;70.76
22651;BME280;11492;42.646;23.400;2023-01-28T08:47:51;94787.94;;;1.97;71.31
22651;BME280;11492;42.646;23.400;2023-01-28T08:50:17;94782.84;;;2.06;71.58
22651;BME280;11492;42.646;23.400;2023-01-28T08:52:43;94780.72;;;2.11;71.65
22651;BME280;11492;42.646;23.400;2023-01-28T08:55:10;94771.56;;;2.27;72.72
22651;BME280;11492;42.646;23.400;2023-01-28T08:57:36;94776.91;;;2.43;72.16
22651;BME280;11492;42.646;23.400;2023-01-28T09:00:02;94775.97;;;2.53;70.62
22651;BME280;11492;42.646;23.400;2023-01-28T09:02:27;94782.13;;;2.60;70.39
22651;BME280;11492;42.646;23.400;2023-01-28T09:04:52;94775.13;;;2.71;70.97
22651;BME280;11492;42.646;23.400;2023-01-28T09:07:18;94780.44;;;2.87;70.66
22651;BME280;11492;42.646;23.400;2023-01-28T09:09:44;94780.41;;;2.96;69.97
22651;BME280;11492;42.646;23.400;2023-01-28T09:12:09;94779.28;;;3.08;69.04
22651;BME280;11492;42.646;23.400;2023-01-28T09:14:35;94786.13;;;3.07;69.54
22651;BME280;11492;42.646;23.400;2023-01-28T09:17:00;94779.78;;;2.85;68.01
22651;BME280;11492;42.646;23.400;2023-01-28T09:19:26;94783.59;;;3.07;68.32
22651;BME280;11492;42.646;23.400;2023-01-28T09:21:51;94791.88;;;3.09;68.25
22651;BME280;11492;42.646;23.400;2023-01-28T09:24:17;94785.81;;;3.20;68.04
22651;BME280;11492;42.646;23.400;2023-01-28T09:26:43;94787.84;;;3.43;67.47
22651;BME280;11492;42.646;23.400;2023-01-28T09:29:09;94782.03;;;3.50;66.99
22651;BME280;11492;42.646;23.400;2023-01-28T09:31:34;94781.97;;;3.59;67.61
22651;BME280;11492;42.646;23.400;2023-01-28T09:34:00;94785.28;;;4.03;66.20
22651;BME280;11492;42.646;23.400;2023-01-28T09:36:25;94782.97;;;4.10;65.72
22651;BME280;11492;42.646;23.400;2023-01-28T09:38:51;94785.44;;;4.02;65.40
22651;BME280;11492;42.646;23.400;2023-01-28T09:47:00;94774.28;;;4.20;65.75
22651;BME280;11492;42.646;23.400;2023-01-28T09:49:39;94773.75;;;4.34;65.19
22651;BME280;11492;42.646;23.400;2023-01-28T09:52:11;94781.78;;;4.39;65.36
22651;BME280;11492;42.646;23.400;2023-01-28T09:54:45;94776.75;;;4.47;64.34
22651;BME280;11492;42.646;23.400;2023-01-28T09:57:22;94775.50;;;4.33;64.78
22651;BME280;11492;42.646;23.400;2023-01-28T09:59:48;94778.47;;;4.04;64.40
22651;BME280;11492;42.646;23.400;2023-01-28T10:07:33;94784.59;;;3.67;68.42
22651;BME280;11492;42.646;23.400;2023-01-28T10:10:25;94779.16;;;3.36;66.81
22651;BME280;11492;42.646;23.400;2023-01-28T10:13:13;94781.00;;;3.43;67.00
22651;BME280;11492;42.646;23.400;2023-01-28T10:18:36;94767.94;;;3.46;68.68
22651;BME280;11492;42.646;23.400;2023-01-28T10:21:09;94779.88;;;3.72;68.28
22651;BME280;11492;42.646;23.400;2023-01-28T10:23:54;94773.53;;;3.93;68.14
22651;BME280;11492;42.646;23.400;2023-01-28T10:26:34;94773.19;;;4.05;67.69
22651;BME280;11492;42.646;23.400;2023-01-28T10:29:12;94764.53;;;3.98;67.06
22651;BME280;11492;42.646;23.400;2023-01-28T10:31:46;94776.91;;;3.76;66.43
22651;BME280;11492;42.646;23.400;2023-01-28T10:34:16;94766.53;;;3.61;67.34
22651;BME280;11492;42.646;23.400;2023-01-28T10:36:41;94774.31;;;3.59;67.39
22651;BME280;11492;42.646;23.400;2023-01-28T10:39:10;94772.06;;;3.56;67.46
22651;BME280;11492;42.646;23.400;2023-01-28T10:41:37;94777.91;;;3.66;67.92
22651;BME280;11492;42.646;23.400;2023-01-28T10:44:03;94776.47;;;3.11;67.41
22651;BME280;11492;42.646;23.400;2023-01-28T10:46:33;94777.97;;;2.95;69.18
22651;BME280;11492;42.646;23.400;2023-01-28T10:49:14;94771.88;;;3.14;69.56
22651;BME280;11492;42.646;23.400;2023-01-28T10:51:42;94761.19;;;3.37;69.97
22651;BME280;11492;42.646;23.400;2023-01-28T10:54:23;94771.88;;;3.41;68.66
22651;BME280;11492;42.646;23.400;2023-01-28T10:57:10;94769.91;;;3.35;68.49
22651;BME280;11492;42.646;23.400;2023-01-28T10:59:38;94759.75;;;3.25;67.85
22651;BME280;11492;42.646;23.400;2023-01-28T11:02:23;94770.03;;;3.33;68.33
22651;BME280;11492;42.646;23.400;2023-01-28T11:05:05;94774.63;;;3.30;68.63
22651;BME280;11492;42.646;23.400;2023-01-28T11:07:31;94760.03;;;3.49;68.82
22651;BME280;11492;42.646;23.400;2023-01-28T11:09:57;94773.38;;;3.60;68.08
22651;BME280;11492;42.646;23.400;2023-01-28T11:12:24;94771.28;;;3.73;68.15
22651;BME280;11492;42.646;23.400;2023-01-28T11:14:59;94761.63;;;3.94;67.63
22651;BME280;11492;42.646;23.400;2023-01-28T11:17:28;94756.34;;;4.12;67.07
22651;BME280;11492;42.646;23.400;2023-01-28T11:19:56;94755.88;;;4.34;65.56
22651;BME280;11492;42.646;23.400;2023-01-28T11:22:32;94767.88;;;4.16;65.08
22651;BME280;11492;42.646;23.400;2023-01-28T11:25:00;94756.00;;;4.49;63.91
22651;BME280;11492;42.646;23.400;2023-01-28T11:27:29;94763.47;;;4.68;62.59
22651;BME280;11492;42.646;23.400;2023-01-28T11:29:59;94768.16;;;4.97;62.22
22651;BME280;11492;42.646;23.400;2023-01-28T11:32:28;94759.88;;;5.11;61.74
22651;BME280;11492;42.646;23.400;2023-01-28T11:34:55;94757.03;;;5.14;61.72
22651;BME280;11492;42.646;23.400;2023-01-28T11:37:23;94753.94;;;5.03;61.40
22651;BME280;11492;42.646;23.400;2023-01-28T11:40:08;94766.38;;;4.73;61.67
22651;BME280;11492;42.646;23.400;2023-01-28T11:42:40;94757.75;;;4.74;62.63
22651;BME280;11492;42.646;23.400;2023-01-28T11:50:45;94759.22;;;4.51;63.21
22651;BME280;11492;42.646;23.400;2023-01-28T11:53:26;94754.59;;;4.55;62.12
22651;BME280;11492;42.646;23.400;2023-01-28T11:56:04;94757.91;;;4.47;62.59
22651;BME280;11492;42.646;23.400;2023-01-28T12:05:03;94760.53;;;4.55;63.58
22651;BME280;11492;42.646;23.400;2023-01-28T12:08:14;94755.44;;;4.38;63.48
22651;BME280;11492;42.646;23.400;2023-01-28T12:13:59;94762.41;;;4.11;63.57
22651;BME280;11492;42.646;23.400;2023-01-28T12:25:06;94765.59;;;4.13;63.63
22651;BME280;11492;42.646;23.400;2023-01-28T12:30:59;94769.84;;;4.22;63.47
22651;BME280;11492;42.646;23.400;2023-01-28T12:38:47;94758.56;;;4.74;62.96
22651;BME280;11492;42.646;23.400;2023-01-28T12:41:21;94765.25;;;5.00;63.12
22651;BME280;11492;42.646;23.400;2023-01-28T12:43:57;94768.44;;;4.95;61.67
22651;BME280;11492;42.646;23.400;2023-01-28T12:49:17;94781.47;;;5.09;61.66
22651;BME280;11492;42.646;23.400;2023-01-28T12:56:53;94783.06;;;4.85;61.84
22651;BME280;11492;42.646;23.400;2023-01-28T12:59:36;94785.25;;;4.97;61.39
22651;BME280;11492;42.646;23.400;2023-01-28T13:04:41;94787.38;;;5.09;61.85
22651;BME280;11492;42.646;23.400;2023-01-28T13:10:02;94788.28;;;4.50;61.78
22651;BME280;11492;42.646;23.400;2023-01-28T13:12:29;94796.94;;;4.57;62.36
22651;BME280;11492;42.646;23.400;2023-01-28T13:14:57;94794.31;;;4.67;62.51
22651;BME280;11492;42.646;23.400;2023-01-28T13:17:31;94796.81;;;4.84;62.74
22651;BME280;11492;42.646;23.400;2023-01-28T13:19:58;94797.44;;;5.03;62.37
22651;BME280;11492;42.646;23.400;2023-01-28T13:22:31;94803.97;;;5.05;61.71
22651;BME280;11492;42.646;23.400;2023-01-28T13:27:59;94799.81;;;5.04;61.33
22651;BME280;11492;42.646;23.400;2023-01-28T13:30:45;94802.53;;;5.03;61.29
22651;BME280;11492;42.646;23.400;2023-01-28T13:33:29;94798.13;;;4.88;60.90
22651;BME280;11492;42.646;23.400;2023-01-28T13:35:55;94804.19;;;4.87;61.83
22651;BME280;11492;42.646;23.400;2023-01-28T13:38:21;94822.75;;;4.47;61.71
22651;BME280;11492;42.646;23.400;2023-01-28T13:40:57;94817.78;;;4.28;62.41
22651;BME280;11492;42.646;23.400;2023-01-28T13:46:05;94815.44;;;4.51;62.88
22651;BME280;11492;42.646;23.400;2023-01-28T13:51:01;94828.00;;;4.45;62.38
22651;BME280;11492;42.646;23.400;2023-01-28T13:56:27;94841.31;;;3.61;63.47
22651;BME280;11492;42.646;23.400;2023-01-28T13:59:06;94838.50;;;3.64;64.70
22651;BME280;11492;42.646;23.400;2023-01-28T14:01:44;94842.06;;;3.71;64.39
22651;BME280;11492;42.646;23.400;2023-01-28T14:07:23;94843.34;;;3.31;65.03
22651;BME280;11492;42.646;23.400;2023-01-28T14:17:47;94859.16;;;3.35;66.15
22651;BME280;11492;42.646;23.400;2023-01-28T14:20:36;94863.88;;;3.30;65.52
22651;BME280;11492;42.646;23.400;2023-01-28T14:23:12;94860.00;;;3.26;66.93
22651;BME280;11492;42.646;23.400;2023-01-28T14:31:17;94877.03;;;2.71;66.99
22651;BME280;11492;42.646;23.400;2023-01-28T14:33:46;94872.59;;;2.73;67.71
22651;BME280;11492;42.646;23.400;2023-01-28T14:36:12;94877.44;;;2.57;68.16
22651;BME280;11492;42.646;23.400;2023-01-28T14:38:40;94878.53;;;2.46;67.96
22651;BME280;11492;42.646;23.400;2023-01-28T14:41:07;94872.38;;;2.39;68.89
22651;BME280;11492;42.646;23.400;2023-01-28T14:43:35;94878.53;;;2.55;68.58
22651;BME280;11492;42.646;23.400;2023-01-28T14:57:20;94889.91;;;2.42;69.34
22651;BME280;11492;42.646;23.400;2023-01-28T14:59:54;94894.75;;;2.35;68.99
22651;BME280;11492;42.646;23.400;2023-01-28T15:02:28;94894.63;;;2.46;69.34
22651;BME280;11492;42.646;23.400;2023-01-28T15:04:54;94892.88;;;2.47;69.44
22651;BME280;11492;42.646;23.400;2023-01-28T15:07:31;94894.47;;;2.47;68.83
22651;BME280;11492;42.646;23.400;2023-01-28T15:10:05;94900.09;;;2.42;69.26
22651;BME280;11492;42.646;23.400;2023-01-28T15:12:34;94897.97;;;2.47;69.67
22651;BME280;11492;42.646;23.400;2023-01-28T15:15:18;94898.78;;;2.56;69.25
22651;BME280;11492;42.646;23.400;2023-01-28T15:17:46;94892.63;;;2.49;69.34